Algosea — CFN4229 — position and weather

sailwx.info

Track history (hours):
 
Tides and Currents Weather Stations Pressure Air Temp Water Temp Dewpoint Dewpoint Depression Visibility Wind Speed Wind Dir Waves Ship Positions

Algosea

Last reported at 2015-Mar-06 11:16 UTC. Time now 2015-Mar-06 14:19 UTC.
Position N 42°48' W 080°03'.

Length 144 m; draft 7.5 m.

Type: Ship (hazmat cat C). MMSI: 316006868.

Date/timePositionNaut miles runAvg speedWind from/ knotsBaromVisibWave heightAir tempDewpointWater temp
2015-Mar-06 11:16N 42°48' W 080°03'0 0.0
2015-Mar-06 10:31N 42°48' W 080°03'0 0.0
2015-Mar-06 09:28N 42°48' W 080°03'0 0.0
2015-Mar-06 08:28N 42°48' W 080°03'0 0.0
2015-Mar-06 07:28N 42°48' W 080°03'0 0.0
2015-Mar-06 06:28N 42°48' W 080°03'0 0.0
2015-Mar-06 05:28N 42°48' W 080°03'0 0.0
2015-Mar-06 04:31N 42°48' W 080°03'0 0.0
2015-Mar-06 03:31N 42°48' W 080°03'0 0.0
2015-Mar-06 02:14N 42°48' W 080°03'0 0.0
2015-Mar-06 01:31N 42°48' W 080°03'0 0.0
2015-Mar-06 00:33N 42°48' W 080°03'1 1.4
2015-Mar-05 23:33N 42°47' W 080°03'2 1.6
2015-Mar-05 22:33N 42°45' W 080°04'5 5.0
2015-Mar-05 21:33N 42°40' W 080°03'7 7.5
2015-Mar-05 20:33N 42°33' W 079°60'1010.0
2015-Mar-05 19:33N 42°31' W 080°13'4 4.0
2015-Mar-05 18:33N 42°29' W 080°18'5 5.0
2015-Mar-05 17:28N 42°30' W 080°25'  
Track history (hours):
 
Tides and Currents Weather Stations Pressure Air Temp Water Temp Dewpoint Dewpoint Depression Visibility Wind Speed Wind Dir Waves Ship Positions

Algosea

Last reported at 2015-Mar-06 11:16 UTC. Time now 2015-Mar-06 14:19 UTC.
Position N 42°48' W 080°03'.

Length 144 m; draft 7.5 m.

Type: Ship (hazmat cat C). MMSI: 316006868.

Date/timePositionNaut miles runAvg speedWind from/ knotsBaromVisibWave heightAir tempDewpointWater temp
2015-Mar-06 11:16N 42°48' W 080°03'0 0.0
2015-Mar-06 10:31N 42°48' W 080°03'0 0.0
2015-Mar-06 09:28N 42°48' W 080°03'0 0.0
2015-Mar-06 08:28N 42°48' W 080°03'0 0.0
2015-Mar-06 07:28N 42°48' W 080°03'0 0.0
2015-Mar-06 06:28N 42°48' W 080°03'0 0.0
2015-Mar-06 05:28N 42°48' W 080°03'0 0.0
2015-Mar-06 04:31N 42°48' W 080°03'0 0.0
2015-Mar-06 03:31N 42°48' W 080°03'0 0.0
2015-Mar-06 02:14N 42°48' W 080°03'0 0.0
2015-Mar-06 01:31N 42°48' W 080°03'0 0.0
2015-Mar-06 00:33N 42°48' W 080°03'1 1.4
2015-Mar-05 23:33N 42°47' W 080°03'2 1.6
2015-Mar-05 22:33N 42°45' W 080°04'5 5.0
2015-Mar-05 21:33N 42°40' W 080°03'7 7.5
2015-Mar-05 20:33N 42°33' W 079°60'1010.0
2015-Mar-05 19:33N 42°31' W 080°13'4 4.0
2015-Mar-05 18:33N 42°29' W 080°18'5 5.0
2015-Mar-05 17:28N 42°30' W 080°25'  

Dump ship's entire track history